Sawyer District, Connecticut
Current Conditions -  °F | °C
As of 5:52 PM on Sunday 21 Dec 2014 (Local Time) from KIJD Reporting Station
Overcast Overcast  
Wind Chill: 29°   Ceiling: 1400
Heat Index: 34°   Visibility: 10mi
Dew Point: 29°   Wind: 6mph
Humidity: 82%   Direction: 30°NNE
Pressure: 30.31"   Gusts: NA
Location:  41.91°N, 71.8739°W
Report Text: KIJD 212252Z AUTO 03005KT 10SM OVC014 01/M02 A3031 RMK AO2 SLP267 T00111017
Loading
Personal Weather Stations






























Interactive Weather Map New forecast layout! Learn more

10-Day Weather Forecast

Advertisements
Track Severe Weather on mobile